createdAt,value
2019-03-03T00:02:03.494Z,100468.00
2019-03-03T00:04:33.197Z,100472.23
2019-03-03T00:07:03.835Z,100463.83
2019-03-03T00:09:33.551Z,100454.89
2019-03-03T00:12:03.624Z,100446.14
2019-03-03T00:14:33.341Z,100450.48
2019-03-03T00:17:03.137Z,100448.11
2019-03-03T00:19:32.743Z,100448.27
2019-03-03T00:22:02.411Z,100451.47
2019-03-03T00:24:32.240Z,100441.66
2019-03-03T00:27:01.848Z,100450.58
2019-03-03T00:29:31.649Z,100436.94
2019-03-03T00:32:01.304Z,100450.42
2019-03-03T00:34:33.286Z,100440.29
2019-03-03T00:37:16.497Z,100446.03
2019-03-03T00:40:06.113Z,100446.77
2019-03-03T00:42:53.803Z,100438.31
2019-03-03T00:45:40.034Z,100442.38
2019-03-03T00:48:17.986Z,100430.55
2019-03-03T00:50:58.077Z,100432.75
2019-03-03T00:53:29.291Z,100429.74
2019-03-03T00:56:03.513Z,100428.35
2019-03-03T00:58:40.675Z,100425.48
2019-03-03T01:01:26.783Z,100424.46
2019-03-03T01:04:00.899Z,100416.74
2019-03-03T01:06:39.363Z,100413.47
2019-03-03T01:09:26.839Z,100413.69
2019-03-03T01:12:15.474Z,100411.67
2019-03-03T01:14:48.668Z,100408.62
2019-03-03T01:17:28.750Z,100396.80
2019-03-03T01:19:58.137Z,100395.11
2019-03-03T01:22:32.178Z,100379.22
2019-03-03T01:25:01.792Z,100388.34
2019-03-03T01:27:31.379Z,100384.28
2019-03-03T01:30:00.980Z,100380.56
2019-03-03T01:32:30.573Z,100377.52
2019-03-03T01:35:03.202Z,100380.55
2019-03-03T01:37:32.732Z,100374.47
2019-03-03T01:40:02.358Z,100379.51
2019-03-03T01:42:31.907Z,100384.20
2019-03-03T01:45:01.537Z,100380.17
2019-03-03T01:47:31.186Z,100373.45
2019-03-03T01:50:00.876Z,100375.42
2019-03-03T01:52:30.374Z,100375.19
2019-03-03T01:54:59.956Z,100370.62
2019-03-03T01:57:29.768Z,100371.87
2019-03-03T01:59:59.338Z,100364.55
2019-03-03T02:02:29.218Z,100358.73
2019-03-03T02:04:58.958Z,100350.66
2019-03-03T02:07:28.544Z,100336.92
2019-03-03T02:09:58.137Z,100328.41
2019-03-03T02:12:27.763Z,100321.79
2019-03-03T02:14:57.352Z,100313.17
2019-03-03T02:17:29.384Z,100299.98
2019-03-03T02:20:00.346Z,100309.42
2019-03-03T02:22:30.029Z,100304.75
2019-03-03T02:24:59.627Z,100303.91
2019-03-03T02:27:29.293Z,100293.39
2019-03-03T02:29:58.919Z,100310.60
2019-03-03T02:32:30.223Z,100301.28
2019-03-03T02:34:59.937Z,100283.28
2019-03-03T02:37:29.613Z,100280.80
2019-03-03T02:39:59.150Z,100282.34
2019-03-03T02:42:28.931Z,100271.73
2019-03-03T02:44:58.562Z,100260.02
2019-03-03T02:47:28.040Z,100273.56
2019-03-03T02:50:00.821Z,100273.12
2019-03-03T02:52:30.582Z,100275.27
2019-03-03T02:55:00.399Z,100273.45
2019-03-03T02:57:30.736Z,100262.12
2019-03-03T03:00:22.010Z,100266.36
2019-03-03T03:02:56.399Z,100257.11
2019-03-03T03:05:45.596Z,100255.19
2019-03-03T03:08:34.739Z,100251.17
2019-03-03T03:11:06.558Z,100240.80
2019-03-03T03:13:54.235Z,100243.78
2019-03-03T03:16:32.568Z,100237.78
2019-03-03T03:19:21.843Z,100226.95
2019-03-03T03:21:53.087Z,100225.88
2019-03-03T03:24:30.273Z,100232.11
2019-03-03T03:27:19.763Z,100226.18
2019-03-03T03:29:52.501Z,100220.05
2019-03-03T03:32:35.741Z,100200.70
2019-03-03T03:35:21.780Z,100188.54
2019-03-03T03:37:52.951Z,100191.09
2019-03-03T03:40:31.352Z,100192.81
2019-03-03T03:43:02.674Z,100178.81
2019-03-03T03:45:39.541Z,100190.91
2019-03-03T03:48:26.796Z,100178.55
2019-03-03T03:50:58.000Z,100187.16
2019-03-03T03:53:39.256Z,100173.34
2019-03-03T03:56:19.186Z,100179.14
2019-03-03T03:58:53.454Z,100163.91
2019-03-03T04:01:27.712Z,100168.98
2019-03-03T04:04:05.177Z,100176.23
2019-03-03T04:06:36.359Z,100182.20
2019-03-03T04:09:15.993Z,100170.73
2019-03-03T04:11:49.988Z,100171.55
2019-03-03T04:14:23.823Z,100164.03
2019-03-03T04:17:10.657Z,100154.92
2019-03-03T04:19:41.939Z,100151.98
2019-03-03T04:22:31.303Z,100143.81
2019-03-03T04:25:05.718Z,100125.03
2019-03-03T04:27:35.037Z,100142.86
2019-03-03T04:30:08.744Z,100127.55
2019-03-03T04:32:48.648Z,100138.27
2019-03-03T04:35:19.886Z,100129.02
2019-03-03T04:38:03.154Z,100126.53
2019-03-03T04:40:43.287Z,100110.97
2019-03-03T04:43:14.528Z,100121.19
2019-03-03T04:45:45.697Z,100110.56
2019-03-03T04:48:34.634Z,100112.55
2019-03-03T04:51:11.384Z,100101.85
2019-03-03T04:53:54.747Z,100098.62
2019-03-03T04:56:31.649Z,100095.71
2019-03-03T04:59:05.287Z,100091.13
2019-03-03T05:01:43.699Z,100081.16
2019-03-03T05:04:18.464Z,100092.00
2019-03-03T05:06:49.646Z,100076.73
2019-03-03T05:09:20.852Z,100079.23
2019-03-03T05:12:22.534Z,100081.92
2019-03-03T05:14:53.793Z,100077.95
2019-03-03T05:17:23.166Z,100072.89
2019-03-03T05:19:54.387Z,100080.29
2019-03-03T05:22:23.937Z,100079.55
2019-03-03T05:24:53.450Z,100084.20
2019-03-03T05:27:23.660Z,100070.10
2019-03-03T05:29:53.195Z,100070.10
2019-03-03T05:32:22.711Z,100068.19
2019-03-03T05:34:52.355Z,100080.38
2019-03-03T05:37:21.834Z,100057.67
2019-03-03T05:39:51.474Z,100061.03
2019-03-03T05:42:21.115Z,100057.30
2019-03-03T05:44:50.681Z,100059.54
2019-03-03T05:47:20.294Z,100045.20
2019-03-03T05:49:49.888Z,100053.65
2019-03-03T05:52:20.173Z,100033.63
2019-03-03T05:54:49.680Z,100039.06
2019-03-03T05:57:20.786Z,100043.55
2019-03-03T05:59:50.391Z,100042.24
2019-03-03T06:02:20.095Z,100052.06
2019-03-03T06:04:49.738Z,100047.20
2019-03-03T06:07:19.258Z,100047.33
2019-03-03T06:09:48.782Z,100048.00
2019-03-03T06:12:18.588Z,100047.53
2019-03-03T06:14:48.266Z,100052.76
2019-03-03T06:17:18.978Z,100059.38
2019-03-03T06:19:48.581Z,100055.03
2019-03-03T06:22:18.195Z,100054.05
2019-03-03T06:24:47.749Z,100057.63
2019-03-03T06:27:17.351Z,100056.23
2019-03-03T06:29:46.908Z,100049.61
2019-03-03T06:32:16.511Z,100052.56
2019-03-03T06:34:46.664Z,100056.02
2019-03-03T06:37:16.188Z,100056.11
2019-03-03T06:39:45.722Z,100057.03
2019-03-03T06:42:15.364Z,100052.59
2019-03-03T06:44:44.980Z,100055.76
2019-03-03T06:47:14.569Z,100053.75
2019-03-03T06:49:44.703Z,100056.64
2019-03-03T06:52:14.332Z,100041.38
2019-03-03T06:54:44.002Z,100047.27
2019-03-03T06:57:13.797Z,100050.70
2019-03-03T06:59:43.373Z,100041.98
2019-03-03T07:02:13.272Z,100047.45
2019-03-03T07:04:42.839Z,100074.74
2019-03-03T07:07:12.382Z,100046.66
2019-03-03T07:09:42.156Z,100038.39
2019-03-03T07:12:11.729Z,100036.97
2019-03-03T07:14:41.338Z,100039.95
2019-03-03T07:17:10.876Z,100054.06
2019-03-03T07:19:41.544Z,100038.27
2019-03-03T07:22:11.065Z,100030.87
2019-03-03T07:24:41.325Z,100031.48
2019-03-03T07:27:11.361Z,100029.48
2019-03-03T07:29:40.961Z,100026.30
2019-03-03T07:32:10.438Z,100030.69
2019-03-03T07:34:40.064Z,100027.98
2019-03-03T07:37:10.079Z,100023.41
2019-03-03T07:39:39.635Z,100025.12
2019-03-03T07:42:09.373Z,100031.50
2019-03-03T07:44:40.655Z,100039.17
2019-03-03T07:47:10.195Z,100031.70
2019-03-03T07:49:39.860Z,100039.23
2019-03-03T07:52:10.053Z,100024.05
2019-03-03T07:54:39.644Z,100042.52
2019-03-03T07:57:09.384Z,100039.39
2019-03-03T07:59:38.933Z,100045.22
2019-03-03T08:02:08.628Z,100052.66
2019-03-03T08:04:38.258Z,100047.44
2019-03-03T08:07:10.005Z,100044.83
2019-03-03T08:09:41.096Z,100047.70
2019-03-03T08:12:10.873Z,100050.81
2019-03-03T08:14:40.416Z,100055.84
2019-03-03T08:17:10.119Z,100046.39
2019-03-03T08:19:39.637Z,100061.83
2019-03-03T08:22:09.240Z,100054.34
2019-03-03T08:24:39.263Z,100050.81
2019-03-03T08:27:08.933Z,100049.83
2019-03-03T08:29:38.951Z,100049.13
2019-03-03T08:32:08.990Z,100051.70
2019-03-03T08:34:40.289Z,100060.41
2019-03-03T08:37:09.876Z,100057.99
2019-03-03T08:39:39.450Z,100066.74
2019-03-03T08:42:10.862Z,100061.28
2019-03-03T08:44:42.870Z,100058.62
2019-03-03T08:47:38.444Z,100060.78
2019-03-03T08:50:16.898Z,100063.19
2019-03-03T08:52:50.868Z,100058.80
2019-03-03T08:55:22.063Z,100058.20
2019-03-03T08:58:05.591Z,100068.53
2019-03-03T09:00:39.815Z,100057.95
2019-03-03T09:03:23.809Z,100055.36
2019-03-03T09:06:04.231Z,100056.64
2019-03-03T09:08:44.520Z,100065.75
2019-03-03T09:11:24.708Z,100065.58
2019-03-03T09:13:55.934Z,100063.47
2019-03-03T09:16:27.109Z,100069.88
2019-03-03T09:19:13.787Z,100065.42
2019-03-03T09:21:45.064Z,100061.53
2019-03-03T09:24:34.707Z,100059.49
2019-03-03T09:27:21.854Z,100053.67
2019-03-03T09:29:51.270Z,100071.72
2019-03-03T09:32:26.248Z,100067.36
2019-03-03T09:34:55.535Z,100079.96
2019-03-03T09:37:39.202Z,100073.73
2019-03-03T09:40:12.195Z,100083.95
2019-03-03T09:42:52.298Z,100073.41
2019-03-03T09:45:40.755Z,100078.80
2019-03-03T09:48:17.730Z,100075.77
2019-03-03T09:50:52.233Z,100057.11
2019-03-03T09:53:33.728Z,100068.45
2019-03-03T09:56:07.367Z,100056.45
2019-03-03T09:58:47.753Z,100061.83
2019-03-03T10:01:37.294Z,100065.66
2019-03-03T10:04:10.430Z,100064.82
2019-03-03T10:06:44.745Z,100058.19
2019-03-03T10:11:58.439Z,100075.98
2019-03-03T10:14:35.937Z,100061.31
2019-03-03T10:17:23.991Z,100069.78
2019-03-03T10:20:01.462Z,100056.11
2019-03-03T10:22:38.643Z,100050.70
2019-03-03T10:25:23.804Z,100054.04
2019-03-03T10:28:11.713Z,100058.05
2019-03-03T10:30:55.081Z,100055.89
2019-03-03T10:33:43.178Z,100055.75
2019-03-03T10:36:17.436Z,100057.76
2019-03-03T10:38:54.165Z,100061.13
2019-03-03T10:41:33.083Z,100057.17
2019-03-03T10:44:10.157Z,100054.36
2019-03-03T10:46:44.892Z,100058.17
2019-03-03T10:49:16.258Z,100046.30
2019-03-03T10:52:03.608Z,100052.70
2019-03-03T10:54:40.876Z,100047.92
2019-03-03T10:57:30.416Z,100059.48
2019-03-03T11:00:01.724Z,100047.80
2019-03-03T11:02:45.196Z,100052.24
2019-03-03T11:05:33.055Z,100058.50
2019-03-03T11:08:04.534Z,100049.14
2019-03-03T11:10:57.359Z,100056.08
2019-03-03T11:13:33.583Z,100055.05
2019-03-03T11:16:05.747Z,100044.98
2019-03-03T11:18:43.999Z,100050.17
2019-03-03T11:21:13.404Z,100051.77
2019-03-03T11:23:53.395Z,100040.48
2019-03-03T11:26:42.440Z,100046.99
2019-03-03T11:29:16.132Z,100040.41
2019-03-03T11:31:50.126Z,100044.77
2019-03-03T11:34:33.456Z,100046.81
2019-03-03T11:37:04.721Z,100035.81
2019-03-03T11:39:40.306Z,100035.55
2019-03-03T11:42:27.419Z,100042.41
2019-03-03T11:45:01.736Z,100032.38
2019-03-03T11:47:49.731Z,100041.95
2019-03-03T11:50:25.195Z,100039.63
2019-03-03T11:52:57.485Z,100038.08
2019-03-03T11:55:30.244Z,100044.42
2019-03-03T11:58:07.500Z,100039.08
2019-03-03T12:00:41.609Z,100039.53
2019-03-03T12:03:14.691Z,100032.82
2019-03-03T12:06:07.228Z,100029.61
2019-03-03T12:08:38.585Z,100029.93
2019-03-03T12:11:14.953Z,100018.67
2019-03-03T12:13:46.923Z,100021.97
2019-03-03T12:16:27.532Z,100016.22
2019-03-03T12:19:02.434Z,100024.63
2019-03-03T12:21:34.876Z,100014.93
2019-03-03T12:24:13.795Z,100023.07
2019-03-03T12:26:48.078Z,100014.27
2019-03-03T12:29:34.588Z,100014.22
2019-03-03T12:32:22.093Z,100018.88
2019-03-03T12:34:53.548Z,100015.69
2019-03-03T12:37:33.292Z,100014.41
2019-03-03T12:40:05.581Z,100017.50
2019-03-03T12:42:48.925Z,99996.37
2019-03-03T12:45:26.168Z,99997.59
2019-03-03T12:48:13.771Z,99996.38
2019-03-03T12:50:51.255Z,100000.77
2019-03-03T12:53:34.940Z,100005.94
2019-03-03T12:56:06.210Z,100000.51
2019-03-03T12:58:43.211Z,99997.08
2019-03-03T13:01:14.575Z,99993.72
2019-03-03T13:03:45.750Z,99984.87
2019-03-03T13:06:24.100Z,99987.52
2019-03-03T13:08:59.400Z,99991.97
2019-03-03T13:11:37.617Z,99973.40
2019-03-03T13:14:08.991Z,99972.23
2019-03-03T13:16:46.121Z,99973.10
2019-03-03T13:19:19.710Z,99966.45
2019-03-03T13:21:59.193Z,99970.26
2019-03-03T13:24:34.188Z,99963.16
2019-03-03T13:27:17.158Z,99957.25
2019-03-03T13:30:03.092Z,99956.05
2019-03-03T13:32:37.193Z,99954.19
2019-03-03T13:35:26.107Z,99952.36
2019-03-03T13:38:02.838Z,99956.59
2019-03-03T13:40:50.295Z,99950.69
2019-03-03T13:43:20.019Z,99946.70
2019-03-03T13:45:49.860Z,99950.02
2019-03-03T13:48:19.603Z,99940.28
2019-03-03T13:50:51.001Z,99934.16
2019-03-03T13:53:20.669Z,99934.83
2019-03-03T13:55:50.335Z,99934.44
2019-03-03T13:58:20.008Z,99925.80
2019-03-03T14:00:49.700Z,99922.28
2019-03-03T14:03:19.565Z,99918.75
2019-03-03T14:05:50.895Z,99920.58
2019-03-03T14:08:20.557Z,99912.80
2019-03-03T14:10:50.233Z,99909.96
2019-03-03T14:13:19.906Z,99906.61
2019-03-03T14:15:49.640Z,99904.63
2019-03-03T14:18:19.538Z,99901.97
2019-03-03T14:20:49.059Z,99903.11
2019-03-03T14:23:18.873Z,99901.39
2019-03-03T14:25:48.858Z,99910.55
2019-03-03T14:28:18.657Z,99896.55
2019-03-03T14:30:48.624Z,99891.77
2019-03-03T14:33:18.553Z,99901.54
2019-03-03T14:35:48.493Z,99888.95
2019-03-03T14:38:37.542Z,99886.11
2019-03-03T14:41:07.539Z,99885.09
2019-03-03T14:43:37.452Z,99881.21
2019-03-03T14:46:08.054Z,99874.27
2019-03-03T14:48:38.403Z,99867.67
2019-03-03T14:51:09.686Z,99868.17
2019-03-03T14:53:39.528Z,99860.64
2019-03-03T14:56:11.014Z,99864.05
2019-03-03T14:58:40.832Z,99861.18
2019-03-03T15:01:11.327Z,99846.45
2019-03-03T15:03:42.312Z,99848.45
2019-03-03T15:06:12.549Z,99839.06
2019-03-03T15:08:42.793Z,99825.92
2019-03-03T15:11:13.139Z,99828.24
2019-03-03T15:13:43.114Z,99826.84
2019-03-03T15:16:14.223Z,99827.84
2019-03-03T15:18:45.784Z,99829.03
2019-03-03T15:21:24.725Z,99823.24
2019-03-03T15:23:48.306Z,99818.78
2019-03-03T15:26:18.152Z,99816.78
2019-03-03T15:28:48.468Z,99819.05
2019-03-03T15:31:19.512Z,99806.94
2019-03-03T15:33:51.000Z,99809.55
2019-03-03T15:36:21.682Z,99808.73
2019-03-03T15:38:52.046Z,99797.80
2019-03-03T15:41:21.836Z,99786.87
2019-03-03T15:43:53.252Z,99797.27
2019-03-03T15:46:26.854Z,99804.25
2019-03-03T15:48:59.988Z,99806.02
2019-03-03T15:51:30.206Z,99801.83
2019-03-03T15:54:00.451Z,99795.94
2019-03-03T15:56:32.501Z,99796.50
2019-03-03T15:59:02.489Z,99788.58
2019-03-03T16:01:34.995Z,99783.16
2019-03-03T16:04:05.153Z,99784.78
2019-03-03T16:06:35.403Z,99779.90
2019-03-03T16:09:07.747Z,99789.08
2019-03-03T16:11:37.675Z,99775.36
2019-03-03T16:14:07.535Z,99772.81
2019-03-03T16:16:42.920Z,99773.61
2019-03-03T16:19:13.001Z,99771.53
2019-03-03T16:21:43.042Z,99762.79
2019-03-03T16:24:13.048Z,99753.00
2019-03-03T16:26:43.858Z,99758.23
2019-03-03T16:29:13.823Z,99758.32
2019-03-03T16:31:44.379Z,99774.16
2019-03-03T16:34:14.126Z,99756.68
2019-03-03T16:36:43.950Z,99759.87
2019-03-03T16:39:33.060Z,99744.02
2019-03-03T16:42:02.730Z,99762.35
2019-03-03T16:44:32.654Z,99753.05
2019-03-03T16:47:04.496Z,99746.38
2019-03-03T16:49:34.277Z,99742.75
2019-03-03T16:52:03.939Z,99746.66
2019-03-03T16:54:34.437Z,99735.24
2019-03-03T16:57:04.217Z,99736.52
2019-03-03T16:59:33.980Z,99734.77
2019-03-03T17:02:03.786Z,99723.95
2019-03-03T17:04:35.272Z,99716.48
2019-03-03T17:07:06.930Z,99727.66
2019-03-03T17:09:37.365Z,99727.06
2019-03-03T17:12:07.277Z,99722.11
2019-03-03T17:14:36.894Z,99712.37
2019-03-03T17:17:06.751Z,99717.05
2019-03-03T17:19:36.425Z,99720.03
2019-03-03T17:22:08.918Z,99716.89
2019-03-03T17:24:38.697Z,99709.18
2019-03-03T17:27:08.453Z,99711.66
2019-03-03T17:29:38.168Z,99714.09
2019-03-03T17:32:07.857Z,99711.58
2019-03-03T17:34:37.445Z,99707.22
2019-03-03T17:37:07.179Z,99709.50
2019-03-03T17:39:38.911Z,99705.75
2019-03-03T17:42:08.287Z,99700.36
2019-03-03T17:44:41.111Z,99696.13
2019-03-03T17:47:10.861Z,99700.80
2019-03-03T17:49:40.457Z,99690.91
2019-03-03T17:52:10.239Z,99694.09
2019-03-03T17:54:39.869Z,99688.70
2019-03-03T17:57:10.617Z,99699.20
2019-03-03T17:59:42.305Z,99677.86
2019-03-03T18:02:12.126Z,99685.84
2019-03-03T18:04:41.942Z,99679.30
2019-03-03T18:07:12.801Z,99676.30
2019-03-03T18:09:43.482Z,99678.81
2019-03-03T18:12:13.273Z,99668.64
2019-03-03T18:14:43.146Z,99666.45
2019-03-03T18:17:12.980Z,99657.79
2019-03-03T18:19:42.771Z,99658.02
2019-03-03T18:22:19.502Z,99667.23
2019-03-03T18:24:49.459Z,99656.83
2019-03-03T18:27:19.305Z,99661.57
2019-03-03T18:29:49.242Z,99677.69
2019-03-03T18:32:19.008Z,99649.59
2019-03-03T18:34:51.620Z,99653.62
2019-03-03T18:37:21.810Z,99647.41
2019-03-03T18:39:53.210Z,99638.00
2019-03-03T18:42:23.130Z,99637.83
2019-03-03T18:44:52.911Z,99645.09
2019-03-03T18:47:22.726Z,99643.37
2019-03-03T18:49:52.485Z,99629.38
2019-03-03T18:52:25.477Z,99631.16
2019-03-03T18:54:55.175Z,99621.11
2019-03-03T18:57:24.960Z,99623.05
2019-03-03T18:59:55.542Z,99629.90
2019-03-03T19:02:25.628Z,99632.41
2019-03-03T19:04:55.617Z,99618.34
2019-03-03T19:07:25.554Z,99621.78
2019-03-03T19:09:55.395Z,99626.72
2019-03-03T19:12:25.115Z,99622.63
2019-03-03T19:14:56.235Z,99625.63
2019-03-03T19:17:26.002Z,99615.42
2019-03-03T19:19:55.661Z,99617.14
2019-03-03T19:22:25.513Z,99611.08
2019-03-03T19:24:55.417Z,99618.77
2019-03-03T19:27:25.915Z,99616.30
2019-03-03T19:29:55.823Z,99612.08
2019-03-03T19:32:25.614Z,99618.17
2019-03-03T19:34:55.720Z,99601.30
2019-03-03T19:37:25.883Z,99608.69
2019-03-03T19:39:55.788Z,99602.19
2019-03-03T19:42:25.689Z,99590.66
2019-03-03T19:44:55.515Z,99602.58
2019-03-03T19:47:26.830Z,99595.96
2019-03-03T19:49:56.813Z,99591.41
2019-03-03T19:52:28.742Z,99601.25
2019-03-03T19:54:58.637Z,99598.83
2019-03-03T19:57:28.484Z,99597.09
2019-03-03T19:59:58.381Z,99597.48
2019-03-03T20:02:28.144Z,99597.97
2019-03-03T20:04:58.367Z,99592.56
2019-03-03T20:07:30.039Z,99588.98
2019-03-03T20:09:59.780Z,99582.70
2019-03-03T20:12:29.634Z,99583.16
2019-03-03T20:15:01.215Z,99587.89
2019-03-03T20:17:31.090Z,99581.91
2019-03-03T20:20:01.590Z,99582.78
2019-03-03T20:22:33.187Z,99573.72
2019-03-03T20:25:03.046Z,99577.09
2019-03-03T20:27:33.231Z,99567.48
2019-03-03T20:30:03.393Z,99566.79
2019-03-03T20:32:33.821Z,99566.23
2019-03-03T20:35:03.853Z,99576.00
2019-03-03T20:37:35.397Z,99564.59
2019-03-03T20:40:18.176Z,99558.05
2019-03-03T20:42:48.177Z,99559.86
2019-03-03T20:45:28.384Z,99551.41
2019-03-03T20:47:58.369Z,99546.56
2019-03-03T20:50:28.176Z,99542.41
2019-03-03T20:52:58.035Z,99538.05
2019-03-03T20:55:30.607Z,99537.86
2019-03-03T20:58:01.070Z,99532.53
2019-03-03T21:00:35.279Z,99521.73
2019-03-03T21:03:05.295Z,99531.32
2019-03-03T21:05:36.503Z,99517.23
2019-03-03T21:08:07.627Z,99515.70
2019-03-03T21:10:38.343Z,99509.68
2019-03-03T21:13:08.034Z,99504.39
2019-03-03T21:15:37.899Z,99494.33
2019-03-03T21:18:07.999Z,99496.46
2019-03-03T21:20:38.532Z,99480.26
2019-03-03T21:23:08.319Z,99478.55
2019-03-03T21:25:38.678Z,99479.72
2019-03-03T21:28:08.682Z,99481.20
2019-03-03T21:30:38.454Z,99469.89
2019-03-03T21:33:08.546Z,99466.98
2019-03-03T21:35:40.032Z,99463.22
2019-03-03T21:38:10.134Z,99473.63
2019-03-03T21:40:40.918Z,99455.19
2019-03-03T21:43:10.836Z,99450.38
2019-03-03T21:45:42.599Z,99450.38
2019-03-03T21:48:12.439Z,99436.39
2019-03-03T21:50:42.495Z,99435.70
2019-03-03T21:53:14.285Z,99432.40
2019-03-03T21:55:44.342Z,99425.43
2019-03-03T21:58:14.305Z,99430.76
2019-03-03T22:00:44.908Z,99428.45
2019-03-03T22:03:14.982Z,99423.02
2019-03-03T22:05:45.458Z,99409.28
2019-03-03T22:08:15.309Z,99411.34
2019-03-03T22:10:45.244Z,99413.02
2019-03-03T22:13:15.181Z,99411.66
2019-03-03T22:15:45.077Z,99436.50
2019-03-03T22:18:16.324Z,99411.96
2019-03-03T22:20:50.403Z,99402.95
2019-03-03T22:23:20.276Z,99402.53
2019-03-03T22:25:50.726Z,99398.77
2019-03-03T22:28:20.850Z,99396.75
2019-03-03T22:30:50.876Z,99402.78
2019-03-03T22:33:22.109Z,99388.41
2019-03-03T22:35:52.628Z,99391.73
2019-03-03T22:38:22.413Z,99390.83
2019-03-03T22:40:52.560Z,99393.58
2019-03-03T22:43:22.261Z,99388.69
2019-03-03T22:45:51.874Z,99384.31
2019-03-03T22:48:21.480Z,99367.10
2019-03-03T22:50:51.174Z,99371.81
2019-03-03T22:53:20.800Z,99362.00
2019-03-03T22:55:51.138Z,99357.61
2019-03-03T22:58:20.987Z,99362.72
2019-03-03T23:01:05.184Z,99364.19
2019-03-03T23:04:01.905Z,99361.77
2019-03-03T23:06:36.415Z,99359.59
2019-03-03T23:09:17.360Z,99358.95
2019-03-03T23:12:04.830Z,99353.84
2019-03-03T23:14:50.328Z,99349.88
2019-03-03T23:17:41.422Z,99348.63
2019-03-03T23:20:24.886Z,99340.48
2019-03-03T23:23:17.957Z,99344.77
2019-03-03T23:25:52.773Z,99338.31
2019-03-03T23:28:23.183Z,99341.75
2019-03-03T23:30:54.196Z,99341.34
2019-03-03T23:33:24.068Z,99335.80
2019-03-03T23:35:53.767Z,99327.03
2019-03-03T23:38:23.523Z,99335.59
2019-03-03T23:40:53.762Z,99307.84
2019-03-03T23:43:23.538Z,99307.73
2019-03-03T23:45:53.155Z,99297.69
2019-03-03T23:48:22.762Z,99301.97
2019-03-03T23:50:52.438Z,99292.37
2019-03-03T23:53:22.352Z,99291.75
2019-03-03T23:55:55.276Z,99288.17
2019-03-03T23:58:24.976Z,99279.01
